LFBC 220800Z AUTO 01003KT CAVOK 08/08 Q1020 NOSIG
LFBD 220800Z AUTO 03003KT CAVOK 09/09 Q1020 NOSIG